sensor_id;sensor_type;location;lat;lon;timestamp;temperature;humidity
1447;DHT22;717;51.522;7.266;2022-08-19T00:00:17;25.30;92.40
1447;DHT22;717;51.522;7.266;2022-08-19T00:02:45;25.30;92.40
1447;DHT22;717;51.522;7.266;2022-08-19T00:05:13;25.30;92.40
1447;DHT22;717;51.522;7.266;2022-08-19T00:07:41;25.30;92.40
1447;DHT22;717;51.522;7.266;2022-08-19T00:10:10;25.20;92.40
1447;DHT22;717;51.522;7.266;2022-08-19T00:12:37;25.20;92.40
1447;DHT22;717;51.522;7.266;2022-08-19T00:15:07;25.20;92.50
1447;DHT22;717;51.522;7.266;2022-08-19T00:17:40;25.20;92.50
1447;DHT22;717;51.522;7.266;2022-08-19T00:20:09;25.20;92.60
1447;DHT22;717;51.522;7.266;2022-08-19T00:22:37;25.20;92.60
1447;DHT22;717;51.522;7.266;2022-08-19T00:25:04;25.20;92.60
1447;DHT22;717;51.522;7.266;2022-08-19T00:27:32;25.20;92.50
1447;DHT22;717;51.522;7.266;2022-08-19T00:29:58;25.10;92.60
1447;DHT22;717;51.522;7.266;2022-08-19T00:32:25;25.10;92.60
1447;DHT22;717;51.522;7.266;2022-08-19T00:34:54;25.10;92.70
1447;DHT22;717;51.522;7.266;2022-08-19T00:37:21;25.10;92.70
1447;DHT22;717;51.522;7.266;2022-08-19T00:39:49;25.10;92.70
1447;DHT22;717;51.522;7.266;2022-08-19T00:42:16;25.10;92.60
1447;DHT22;717;51.522;7.266;2022-08-19T00:44:44;25.00;92.70
1447;DHT22;717;51.522;7.266;2022-08-19T00:47:10;25.00;92.70
1447;DHT22;717;51.522;7.266;2022-08-19T00:49:41;25.00;92.70
1447;DHT22;717;51.522;7.266;2022-08-19T00:52:15;25.00;92.70
1447;DHT22;717;51.522;7.266;2022-08-19T00:54:45;25.00;92.70
1447;DHT22;717;51.522;7.266;2022-08-19T00:57:16;25.00;92.70
1447;DHT22;717;51.522;7.266;2022-08-19T00:59:46;24.90;92.70
1447;DHT22;717;51.522;7.266;2022-08-19T01:02:15;24.90;92.70
1447;DHT22;717;51.522;7.266;2022-08-19T01:04:42;24.90;92.70
1447;DHT22;717;51.522;7.266;2022-08-19T01:07:09;24.90;92.70
1447;DHT22;717;51.522;7.266;2022-08-19T01:09:37;24.90;92.80
1447;DHT22;717;51.522;7.266;2022-08-19T01:12:04;24.90;92.90
1447;DHT22;717;51.522;7.266;2022-08-19T01:14:31;24.90;92.90
1447;DHT22;717;51.522;7.266;2022-08-19T01:16:58;24.90;92.90
1447;DHT22;717;51.522;7.266;2022-08-19T01:19:28;24.90;92.90
1447;DHT22;717;51.522;7.266;2022-08-19T01:22:01;24.80;92.80
1447;DHT22;717;51.522;7.266;2022-08-19T01:24:30;24.80;92.90
1447;DHT22;717;51.522;7.266;2022-08-19T01:26:57;24.80;92.90
1447;DHT22;717;51.522;7.266;2022-08-19T01:29:24;24.80;92.90
1447;DHT22;717;51.522;7.266;2022-08-19T01:31:51;24.80;92.90
1447;DHT22;717;51.522;7.266;2022-08-19T01:34:19;24.70;92.90
1447;DHT22;717;51.522;7.266;2022-08-19T01:36:46;24.70;93.00
1447;DHT22;717;51.522;7.266;2022-08-19T01:39:17;24.70;93.00
1447;DHT22;717;51.522;7.266;2022-08-19T01:41:46;24.70;93.00
1447;DHT22;717;51.522;7.266;2022-08-19T01:44:15;24.70;93.00
1447;DHT22;717;51.522;7.266;2022-08-19T01:46:43;24.70;93.10
1447;DHT22;717;51.522;7.266;2022-08-19T01:49:10;24.70;93.10
1447;DHT22;717;51.522;7.266;2022-08-19T01:51:37;24.70;93.10
1447;DHT22;717;51.522;7.266;2022-08-19T01:54:04;24.70;93.10
1447;DHT22;717;51.522;7.266;2022-08-19T01:56:31;24.60;93.00
1447;DHT22;717;51.522;7.266;2022-08-19T01:59:02;24.60;93.00
1447;DHT22;717;51.522;7.266;2022-08-19T02:01:30;24.60;93.00
1447;DHT22;717;51.522;7.266;2022-08-19T02:03:57;24.60;93.00
1447;DHT22;717;51.522;7.266;2022-08-19T02:06:26;24.60;93.00
1447;DHT22;717;51.522;7.266;2022-08-19T02:08:53;24.60;93.10
1447;DHT22;717;51.522;7.266;2022-08-19T02:11:21;24.50;93.10
1447;DHT22;717;51.522;7.266;2022-08-19T02:13:48;24.50;93.10
1447;DHT22;717;51.522;7.266;2022-08-19T02:16:18;24.50;93.10
1447;DHT22;717;51.522;7.266;2022-08-19T02:18:46;24.50;93.10
1447;DHT22;717;51.522;7.266;2022-08-19T02:21:14;24.50;93.10
1447;DHT22;717;51.522;7.266;2022-08-19T02:23:41;24.50;93.10
1447;DHT22;717;51.522;7.266;2022-08-19T02:26:08;24.50;93.10
1447;DHT22;717;51.522;7.266;2022-08-19T02:28:35;24.50;93.10
1447;DHT22;717;51.522;7.266;2022-08-19T02:31:02;24.50;93.20
1447;DHT22;717;51.522;7.266;2022-08-19T02:33:31;24.50;93.20
1447;DHT22;717;51.522;7.266;2022-08-19T02:35:57;24.40;93.20
1447;DHT22;717;51.522;7.266;2022-08-19T02:38:24;24.40;93.30
1447;DHT22;717;51.522;7.266;2022-08-19T02:40:55;24.40;93.30
1447;DHT22;717;51.522;7.266;2022-08-19T02:43:25;24.40;93.40
1447;DHT22;717;51.522;7.266;2022-08-19T02:45:53;24.40;93.40
1447;DHT22;717;51.522;7.266;2022-08-19T02:48:21;24.40;93.40
1447;DHT22;717;51.522;7.266;2022-08-19T02:50:52;24.40;93.40
1447;DHT22;717;51.522;7.266;2022-08-19T02:53:21;24.40;93.50
1447;DHT22;717;51.522;7.266;2022-08-19T02:55:49;24.30;93.50
1447;DHT22;717;51.522;7.266;2022-08-19T02:58:16;24.40;93.50
1447;DHT22;717;51.522;7.266;2022-08-19T03:00:45;24.30;93.90
1447;DHT22;717;51.522;7.266;2022-08-19T03:03:12;24.30;93.60
1447;DHT22;717;51.522;7.266;2022-08-19T03:05:39;24.30;93.50
1447;DHT22;717;51.522;7.266;2022-08-19T03:08:08;24.30;93.50
1447;DHT22;717;51.522;7.266;2022-08-19T03:10:42;24.30;93.60
1447;DHT22;717;51.522;7.266;2022-08-19T03:13:14;24.30;93.60
1447;DHT22;717;51.522;7.266;2022-08-19T03:15:42;24.30;93.60
1447;DHT22;717;51.522;7.266;2022-08-19T03:18:10;24.30;93.60
1447;DHT22;717;51.522;7.266;2022-08-19T03:20:41;24.30;93.60
1447;DHT22;717;51.522;7.266;2022-08-19T03:23:10;24.20;93.50
1447;DHT22;717;51.522;7.266;2022-08-19T03:25:39;24.30;93.60
1447;DHT22;717;51.522;7.266;2022-08-19T03:28:09;24.20;93.60
1447;DHT22;717;51.522;7.266;2022-08-19T03:30:37;24.20;93.50
1447;DHT22;717;51.522;7.266;2022-08-19T03:33:05;24.20;93.50
1447;DHT22;717;51.522;7.266;2022-08-19T03:35:31;24.20;93.60
1447;DHT22;717;51.522;7.266;2022-08-19T03:37:58;24.20;93.60
1447;DHT22;717;51.522;7.266;2022-08-19T03:40:27;24.20;93.60
1447;DHT22;717;51.522;7.266;2022-08-19T03:42:56;24.20;93.70
1447;DHT22;717;51.522;7.266;2022-08-19T03:45:23;24.20;93.70
1447;DHT22;717;51.522;7.266;2022-08-19T03:47:49;24.10;93.80
1447;DHT22;717;51.522;7.266;2022-08-19T03:50:18;24.10;93.80
1447;DHT22;717;51.522;7.266;2022-08-19T03:52:48;24.10;93.80
1447;DHT22;717;51.522;7.266;2022-08-19T03:55:15;24.10;93.70
1447;DHT22;717;51.522;7.266;2022-08-19T03:57:44;24.10;93.70
1447;DHT22;717;51.522;7.266;2022-08-19T04:00:14;24.10;93.70
1447;DHT22;717;51.522;7.266;2022-08-19T04:02:41;24.10;93.70
1447;DHT22;717;51.522;7.266;2022-08-19T04:05:09;24.10;93.80
1447;DHT22;717;51.522;7.266;2022-08-19T04:07:35;24.10;93.80
1447;DHT22;717;51.522;7.266;2022-08-19T04:10:03;24.10;93.70
1447;DHT22;717;51.522;7.266;2022-08-19T04:12:30;24.10;93.70
1447;DHT22;717;51.522;7.266;2022-08-19T04:14:58;24.10;93.70
1447;DHT22;717;51.522;7.266;2022-08-19T04:17:25;24.10;93.70
1447;DHT22;717;51.522;7.266;2022-08-19T04:19:52;24.00;93.70
1447;DHT22;717;51.522;7.266;2022-08-19T04:22:18;24.10;93.70
1447;DHT22;717;51.522;7.266;2022-08-19T04:24:45;24.00;93.70
1447;DHT22;717;51.522;7.266;2022-08-19T04:27:12;24.00;93.70
1447;DHT22;717;51.522;7.266;2022-08-19T04:29:39;24.00;93.80
1447;DHT22;717;51.522;7.266;2022-08-19T04:32:08;24.00;93.90
1447;DHT22;717;51.522;7.266;2022-08-19T04:34:35;24.00;93.90
1447;DHT22;717;51.522;7.266;2022-08-19T04:37:05;24.00;93.90
1447;DHT22;717;51.522;7.266;2022-08-19T04:39:37;23.90;93.90
1447;DHT22;717;51.522;7.266;2022-08-19T04:42:22;24.00;93.90
1447;DHT22;717;51.522;7.266;2022-08-19T04:45:09;23.90;93.90
1447;DHT22;717;51.522;7.266;2022-08-19T04:47:38;23.90;93.90
1447;DHT22;717;51.522;7.266;2022-08-19T04:50:06;23.90;94.00
1447;DHT22;717;51.522;7.266;2022-08-19T04:52:34;23.90;94.00
1447;DHT22;717;51.522;7.266;2022-08-19T04:55:01;23.90;94.00
1447;DHT22;717;51.522;7.266;2022-08-19T04:57:27;23.90;94.10
1447;DHT22;717;51.522;7.266;2022-08-19T04:59:55;23.90;94.20
1447;DHT22;717;51.522;7.266;2022-08-19T05:02:22;23.90;94.20
1447;DHT22;717;51.522;7.266;2022-08-19T05:04:55;23.90;94.30
1447;DHT22;717;51.522;7.266;2022-08-19T05:07:22;23.90;94.40
1447;DHT22;717;51.522;7.266;2022-08-19T05:09:49;23.90;94.40
1447;DHT22;717;51.522;7.266;2022-08-19T05:12:16;23.90;94.40
1447;DHT22;717;51.522;7.266;2022-08-19T05:14:42;23.90;94.50
1447;DHT22;717;51.522;7.266;2022-08-19T05:17:10;23.90;94.60
1447;DHT22;717;51.522;7.266;2022-08-19T05:19:37;23.90;94.70
1447;DHT22;717;51.522;7.266;2022-08-19T05:22:22;23.90;94.70
1447;DHT22;717;51.522;7.266;2022-08-19T05:25:00;23.90;94.70
1447;DHT22;717;51.522;7.266;2022-08-19T05:27:27;24.00;94.70
1447;DHT22;717;51.522;7.266;2022-08-19T05:29:54;23.90;94.70
1447;DHT22;717;51.522;7.266;2022-08-19T05:32:21;23.90;94.80
1447;DHT22;717;51.522;7.266;2022-08-19T05:34:48;24.00;94.80
1447;DHT22;717;51.522;7.266;2022-08-19T05:37:15;24.00;94.90
1447;DHT22;717;51.522;7.266;2022-08-19T05:39:43;24.00;94.90
1447;DHT22;717;51.522;7.266;2022-08-19T05:42:12;24.00;95.00
1447;DHT22;717;51.522;7.266;2022-08-19T05:44:41;24.10;95.10
1447;DHT22;717;51.522;7.266;2022-08-19T05:47:11;24.10;95.10
1447;DHT22;717;51.522;7.266;2022-08-19T05:49:38;24.00;95.20
1447;DHT22;717;51.522;7.266;2022-08-19T05:52:07;24.00;95.20
1447;DHT22;717;51.522;7.266;2022-08-19T05:54:37;24.00;95.20
1447;DHT22;717;51.522;7.266;2022-08-19T05:57:07;24.10;95.30
1447;DHT22;717;51.522;7.266;2022-08-19T05:59:34;24.10;95.30
1447;DHT22;717;51.522;7.266;2022-08-19T06:02:03;24.10;95.40
1447;DHT22;717;51.522;7.266;2022-08-19T06:04:31;24.10;95.50
1447;DHT22;717;51.522;7.266;2022-08-19T06:06:57;24.10;95.60
1447;DHT22;717;51.522;7.266;2022-08-19T06:09:25;24.10;95.60
1447;DHT22;717;51.522;7.266;2022-08-19T06:11:53;24.10;95.70
1447;DHT22;717;51.522;7.266;2022-08-19T06:14:24;24.10;96.10
1447;DHT22;717;51.522;7.266;2022-08-19T06:16:51;24.10;95.80
1447;DHT22;717;51.522;7.266;2022-08-19T06:19:19;24.10;95.80
1447;DHT22;717;51.522;7.266;2022-08-19T06:21:47;24.10;95.90
1447;DHT22;717;51.522;7.266;2022-08-19T06:24:17;24.10;95.90
1447;DHT22;717;51.522;7.266;2022-08-19T06:26:47;24.10;95.90
1447;DHT22;717;51.522;7.266;2022-08-19T06:29:15;24.10;96.00
1447;DHT22;717;51.522;7.266;2022-08-19T06:31:49;24.10;96.00
1447;DHT22;717;51.522;7.266;2022-08-19T06:34:16;24.10;96.10
1447;DHT22;717;51.522;7.266;2022-08-19T06:36:46;24.10;96.10
1447;DHT22;717;51.522;7.266;2022-08-19T06:39:16;24.20;96.10
1447;DHT22;717;51.522;7.266;2022-08-19T06:41:45;24.10;96.10
1447;DHT22;717;51.522;7.266;2022-08-19T06:44:14;24.20;96.20
1447;DHT22;717;51.522;7.266;2022-08-19T06:46:41;24.20;96.20
1447;DHT22;717;51.522;7.266;2022-08-19T06:49:09;24.10;96.20
1447;DHT22;717;51.522;7.266;2022-08-19T06:51:40;24.10;96.30
1447;DHT22;717;51.522;7.266;2022-08-19T06:54:07;24.10;96.40
1447;DHT22;717;51.522;7.266;2022-08-19T06:56:34;24.10;96.30
1447;DHT22;717;51.522;7.266;2022-08-19T06:59:03;24.10;96.40
1447;DHT22;717;51.522;7.266;2022-08-19T07:01:34;24.10;96.40
1447;DHT22;717;51.522;7.266;2022-08-19T07:04:03;24.10;96.40
1447;DHT22;717;51.522;7.266;2022-08-19T07:06:31;24.10;96.40
1447;DHT22;717;51.522;7.266;2022-08-19T07:08:58;24.20;96.40
1447;DHT22;717;51.522;7.266;2022-08-19T07:11:25;24.20;96.40
1447;DHT22;717;51.522;7.266;2022-08-19T07:13:52;24.20;96.40
1447;DHT22;717;51.522;7.266;2022-08-19T07:16:19;24.20;96.40
1447;DHT22;717;51.522;7.266;2022-08-19T07:18:46;24.30;96.50
1447;DHT22;717;51.522;7.266;2022-08-19T07:21:15;24.30;96.50
1447;DHT22;717;51.522;7.266;2022-08-19T07:23:45;24.30;96.50
1447;DHT22;717;51.522;7.266;2022-08-19T07:26:15;24.30;96.50
1447;DHT22;717;51.522;7.266;2022-08-19T07:28:42;24.30;96.50
1447;DHT22;717;51.522;7.266;2022-08-19T07:31:11;24.30;96.50
1447;DHT22;717;51.522;7.266;2022-08-19T07:33:38;24.30;96.60
1447;DHT22;717;51.522;7.266;2022-08-19T07:36:07;24.30;96.60
1447;DHT22;717;51.522;7.266;2022-08-19T07:38:35;24.30;96.70
1447;DHT22;717;51.522;7.266;2022-08-19T07:41:04;24.30;96.70
1447;DHT22;717;51.522;7.266;2022-08-19T07:43:30;24.30;96.70
1447;DHT22;717;51.522;7.266;2022-08-19T07:45:57;24.30;96.60
1447;DHT22;717;51.522;7.266;2022-08-19T07:48:25;24.40;96.70
1447;DHT22;717;51.522;7.266;2022-08-19T07:50:59;24.40;96.70
1447;DHT22;717;51.522;7.266;2022-08-19T07:53:33;24.50;96.70
1447;DHT22;717;51.522;7.266;2022-08-19T07:56:05;24.50;96.60
1447;DHT22;717;51.522;7.266;2022-08-19T07:58:34;24.50;96.60
1447;DHT22;717;51.522;7.266;2022-08-19T08:01:03;24.50;96.50
1447;DHT22;717;51.522;7.266;2022-08-19T08:03:35;24.60;96.60
1447;DHT22;717;51.522;7.266;2022-08-19T08:06:22;24.60;96.60
1447;DHT22;717;51.522;7.266;2022-08-19T08:09:07;24.60;96.60
1447;DHT22;717;51.522;7.266;2022-08-19T08:11:39;24.70;96.60
1447;DHT22;717;51.522;7.266;2022-08-19T08:14:07;24.70;96.70
1447;DHT22;717;51.522;7.266;2022-08-19T08:16:36;24.70;96.70
1447;DHT22;717;51.522;7.266;2022-08-19T08:19:04;24.70;96.70
1447;DHT22;717;51.522;7.266;2022-08-19T08:21:32;24.70;96.70
1447;DHT22;717;51.522;7.266;2022-08-19T08:24:02;24.80;96.70
1447;DHT22;717;51.522;7.266;2022-08-19T08:26:29;24.80;96.70
1447;DHT22;717;51.522;7.266;2022-08-19T08:28:57;24.90;96.70
1447;DHT22;717;51.522;7.266;2022-08-19T08:31:24;24.90;96.70
1447;DHT22;717;51.522;7.266;2022-08-19T08:33:51;24.90;96.70
1447;DHT22;717;51.522;7.266;2022-08-19T08:36:18;24.90;96.70
1447;DHT22;717;51.522;7.266;2022-08-19T08:38:45;24.90;96.70
1447;DHT22;717;51.522;7.266;2022-08-19T08:41:18;25.00;96.80
1447;DHT22;717;51.522;7.266;2022-08-19T08:43:50;25.00;96.80
1447;DHT22;717;51.522;7.266;2022-08-19T08:46:22;25.00;96.80
1447;DHT22;717;51.522;7.266;2022-08-19T08:48:56;25.10;96.80
1447;DHT22;717;51.522;7.266;2022-08-19T08:51:29;25.10;97.00
1447;DHT22;717;51.522;7.266;2022-08-19T08:53:59;25.10;96.70
1447;DHT22;717;51.522;7.266;2022-08-19T08:56:26;25.10;96.60
1447;DHT22;717;51.522;7.266;2022-08-19T08:58:57;25.10;96.50
1447;DHT22;717;51.522;7.266;2022-08-19T09:01:26;25.20;96.50
1447;DHT22;717;51.522;7.266;2022-08-19T09:03:54;25.20;96.40
1447;DHT22;717;51.522;7.266;2022-08-19T09:06:26;25.20;96.50
1447;DHT22;717;51.522;7.266;2022-08-19T09:09:09;25.20;96.50
1447;DHT22;717;51.522;7.266;2022-08-19T09:11:51;25.30;96.40
1447;DHT22;717;51.522;7.266;2022-08-19T09:14:34;25.40;96.30
1447;DHT22;717;51.522;7.266;2022-08-19T09:17:04;25.40;96.20
1447;DHT22;717;51.522;7.266;2022-08-19T09:19:33;25.40;96.00
1447;DHT22;717;51.522;7.266;2022-08-19T09:22:00;25.40;96.00
1447;DHT22;717;51.522;7.266;2022-08-19T09:24:27;25.50;96.00
1447;DHT22;717;51.522;7.266;2022-08-19T09:26:54;25.60;96.00
1447;DHT22;717;51.522;7.266;2022-08-19T09:29:20;25.60;96.00
1447;DHT22;717;51.522;7.266;2022-08-19T09:31:47;25.70;96.00
1447;DHT22;717;51.522;7.266;2022-08-19T09:34:16;25.70;95.90
1447;DHT22;717;51.522;7.266;2022-08-19T09:36:45;25.70;95.80
1447;DHT22;717;51.522;7.266;2022-08-19T09:39:12;25.80;95.80
1447;DHT22;717;51.522;7.266;2022-08-19T09:41:38;25.80;95.80
1447;DHT22;717;51.522;7.266;2022-08-19T09:44:05;25.90;95.80
1447;DHT22;717;51.522;7.266;2022-08-19T09:46:32;25.90;95.50
1447;DHT22;717;51.522;7.266;2022-08-19T09:48:59;25.90;95.30
1447;DHT22;717;51.522;7.266;2022-08-19T09:51:28;25.90;95.20
1447;DHT22;717;51.522;7.266;2022-08-19T09:53:59;26.00;95.10
1447;DHT22;717;51.522;7.266;2022-08-19T09:56:26;26.00;95.00
1447;DHT22;717;51.522;7.266;2022-08-19T09:58:52;26.10;94.80
1447;DHT22;717;51.522;7.266;2022-08-19T10:01:21;26.10;94.70
1447;DHT22;717;51.522;7.266;2022-08-19T10:03:50;26.10;94.70
1447;DHT22;717;51.522;7.266;2022-08-19T10:06:18;26.20;94.60
1447;DHT22;717;51.522;7.266;2022-08-19T10:08:46;26.20;94.50
1447;DHT22;717;51.522;7.266;2022-08-19T10:11:13;26.30;94.50
1447;DHT22;717;51.522;7.266;2022-08-19T10:13:43;26.30;94.30
1447;DHT22;717;51.522;7.266;2022-08-19T10:16:13;26.30;94.00
1447;DHT22;717;51.522;7.266;2022-08-19T10:18:42;26.30;93.80
1447;DHT22;717;51.522;7.266;2022-08-19T10:21:11;26.40;93.80
1447;DHT22;717;51.522;7.266;2022-08-19T10:23:41;26.30;93.80
1447;DHT22;717;51.522;7.266;2022-08-19T10:26:13;26.40;93.60
1447;DHT22;717;51.522;7.266;2022-08-19T10:28:40;26.40;93.90
1447;DHT22;717;51.522;7.266;2022-08-19T10:31:09;26.40;93.50
1447;DHT22;717;51.522;7.266;2022-08-19T10:33:37;26.50;93.80
1447;DHT22;717;51.522;7.266;2022-08-19T10:36:07;26.50;93.20
1447;DHT22;717;51.522;7.266;2022-08-19T10:38:35;26.50;93.10
1447;DHT22;717;51.522;7.266;2022-08-19T10:41:11;26.50;92.90
1447;DHT22;717;51.522;7.266;2022-08-19T10:43:39;26.60;92.80
1447;DHT22;717;51.522;7.266;2022-08-19T10:46:07;26.60;92.80
1447;DHT22;717;51.522;7.266;2022-08-19T10:48:34;26.60;92.70
1447;DHT22;717;51.522;7.266;2022-08-19T10:51:01;26.70;92.70
1447;DHT22;717;51.522;7.266;2022-08-19T10:53:46;26.70;92.50
1447;DHT22;717;51.522;7.266;2022-08-19T10:56:15;26.70;92.40
1447;DHT22;717;51.522;7.266;2022-08-19T10:59:00;26.80;92.30
1447;DHT22;717;51.522;7.266;2022-08-19T11:01:29;26.80;92.10
1447;DHT22;717;51.522;7.266;2022-08-19T11:03:56;26.80;91.70
1447;DHT22;717;51.522;7.266;2022-08-19T11:06:23;26.90;91.70
1447;DHT22;717;51.522;7.266;2022-08-19T11:08:51;26.90;91.60
1447;DHT22;717;51.522;7.266;2022-08-19T11:11:19;26.90;91.70
1447;DHT22;717;51.522;7.266;2022-08-19T11:13:47;27.00;91.70
1447;DHT22;717;51.522;7.266;2022-08-19T11:16:16;27.00;91.60
1447;DHT22;717;51.522;7.266;2022-08-19T11:18:47;27.10;91.60
1447;DHT22;717;51.522;7.266;2022-08-19T11:21:17;27.20;91.70
1447;DHT22;717;51.522;7.266;2022-08-19T11:23:45;27.20;91.70
1447;DHT22;717;51.522;7.266;2022-08-19T11:26:12;27.30;91.70
1447;DHT22;717;51.522;7.266;2022-08-19T11:28:41;27.40;91.60
1447;DHT22;717;51.522;7.266;2022-08-19T11:31:12;27.40;91.50
1447;DHT22;717;51.522;7.266;2022-08-19T11:33:39;27.40;91.50
1447;DHT22;717;51.522;7.266;2022-08-19T11:36:07;27.40;91.40
1447;DHT22;717;51.522;7.266;2022-08-19T11:38:33;27.50;91.40
1447;DHT22;717;51.522;7.266;2022-08-19T11:41:03;27.50;91.30
1447;DHT22;717;51.522;7.266;2022-08-19T11:43:30;27.50;91.30
1447;DHT22;717;51.522;7.266;2022-08-19T11:45:58;27.60;91.70
1447;DHT22;717;51.522;7.266;2022-08-19T11:48:25;27.60;91.30
1447;DHT22;717;51.522;7.266;2022-08-19T11:50:53;27.60;90.90
1447;DHT22;717;51.522;7.266;2022-08-19T11:53:21;27.60;90.70
1447;DHT22;717;51.522;7.266;2022-08-19T11:55:48;27.70;90.50
1447;DHT22;717;51.522;7.266;2022-08-19T11:58:16;27.70;90.30
1447;DHT22;717;51.522;7.266;2022-08-19T12:00:44;27.80;90.30
1447;DHT22;717;51.522;7.266;2022-08-19T12:03:13;27.80;90.00
1447;DHT22;717;51.522;7.266;2022-08-19T12:05:41;27.90;89.50
1447;DHT22;717;51.522;7.266;2022-08-19T12:08:08;27.90;88.90
1447;DHT22;717;51.522;7.266;2022-08-19T12:10:37;27.90;88.90
1447;DHT22;717;51.522;7.266;2022-08-19T12:13:03;28.00;89.30
1447;DHT22;717;51.522;7.266;2022-08-19T12:15:35;28.00;89.50
1447;DHT22;717;51.522;7.266;2022-08-19T12:18:02;28.00;89.50
1447;DHT22;717;51.522;7.266;2022-08-19T12:20:30;28.00;89.70
1447;DHT22;717;51.522;7.266;2022-08-19T12:22:57;28.00;89.60
1447;DHT22;717;51.522;7.266;2022-08-19T12:25:24;28.10;89.50
1447;DHT22;717;51.522;7.266;2022-08-19T12:27:50;28.00;89.50
1447;DHT22;717;51.522;7.266;2022-08-19T12:30:17;28.10;89.50
1447;DHT22;717;51.522;7.266;2022-08-19T12:32:44;28.00;89.20
1447;DHT22;717;51.522;7.266;2022-08-19T12:35:11;28.00;89.20
1447;DHT22;717;51.522;7.266;2022-08-19T12:37:39;28.00;89.00
1447;DHT22;717;51.522;7.266;2022-08-19T12:40:10;28.00;89.20
1447;DHT22;717;51.522;7.266;2022-08-19T12:42:38;28.00;88.90
1447;DHT22;717;51.522;7.266;2022-08-19T12:45:08;28.10;88.30
1447;DHT22;717;51.522;7.266;2022-08-19T12:47:35;28.10;88.30
1447;DHT22;717;51.522;7.266;2022-08-19T12:50:03;28.10;87.90
1447;DHT22;717;51.522;7.266;2022-08-19T12:52:29;28.20;87.50
1447;DHT22;717;51.522;7.266;2022-08-19T12:54:57;28.20;87.10
1447;DHT22;717;51.522;7.266;2022-08-19T12:57:26;28.30;86.50
1447;DHT22;717;51.522;7.266;2022-08-19T12:59:54;28.30;86.50
1447;DHT22;717;51.522;7.266;2022-08-19T13:02:21;28.40;86.50
1447;DHT22;717;51.522;7.266;2022-08-19T13:04:48;28.50;86.80
1447;DHT22;717;51.522;7.266;2022-08-19T13:07:14;28.50;86.10
1447;DHT22;717;51.522;7.266;2022-08-19T13:09:41;28.60;85.40
1447;DHT22;717;51.522;7.266;2022-08-19T13:12:09;28.60;85.20
1447;DHT22;717;51.522;7.266;2022-08-19T13:14:38;28.60;85.00
1447;DHT22;717;51.522;7.266;2022-08-19T13:17:05;28.70;84.80
1447;DHT22;717;51.522;7.266;2022-08-19T13:19:32;28.70;84.80
1447;DHT22;717;51.522;7.266;2022-08-19T13:21:59;28.70;84.50
1447;DHT22;717;51.522;7.266;2022-08-19T13:24:26;28.70;84.60
1447;DHT22;717;51.522;7.266;2022-08-19T13:26:52;28.80;84.70
1447;DHT22;717;51.522;7.266;2022-08-19T13:29:20;28.80;84.40
1447;DHT22;717;51.522;7.266;2022-08-19T13:32:05;28.80;84.30
1447;DHT22;717;51.522;7.266;2022-08-19T13:34:49;28.90;84.00
1447;DHT22;717;51.522;7.266;2022-08-19T13:37:16;28.90;84.00
1447;DHT22;717;51.522;7.266;2022-08-19T13:40:03;28.90;84.00
1447;DHT22;717;51.522;7.266;2022-08-19T13:42:30;29.00;83.60
1447;DHT22;717;51.522;7.266;2022-08-19T13:44:59;29.00;83.30
1447;DHT22;717;51.522;7.266;2022-08-19T13:47:26;29.00;83.00
1447;DHT22;717;51.522;7.266;2022-08-19T13:49:53;29.10;84.00
1447;DHT22;717;51.522;7.266;2022-08-19T13:52:20;29.10;82.90
1447;DHT22;717;51.522;7.266;2022-08-19T13:54:47;29.10;82.40
1447;DHT22;717;51.522;7.266;2022-08-19T13:57:14;29.10;82.60
1447;DHT22;717;51.522;7.266;2022-08-19T13:59:41;29.20;82.50
1447;DHT22;717;51.522;7.266;2022-08-19T14:02:09;29.20;82.00
1447;DHT22;717;51.522;7.266;2022-08-19T14:04:36;29.30;81.40
1447;DHT22;717;51.522;7.266;2022-08-19T14:07:04;29.30;80.70
1447;DHT22;717;51.522;7.266;2022-08-19T14:09:31;29.30;80.70
1447;DHT22;717;51.522;7.266;2022-08-19T14:11:58;29.30;80.70
1447;DHT22;717;51.522;7.266;2022-08-19T14:14:24;29.50;81.10
1447;DHT22;717;51.522;7.266;2022-08-19T14:16:51;29.40;80.90
1447;DHT22;717;51.522;7.266;2022-08-19T14:19:19;29.50;80.70
1447;DHT22;717;51.522;7.266;2022-08-19T14:21:46;29.60;80.60
1447;DHT22;717;51.522;7.266;2022-08-19T14:24:13;29.60;80.40
1447;DHT22;717;51.522;7.266;2022-08-19T14:26:40;29.60;80.50
1447;DHT22;717;51.522;7.266;2022-08-19T14:29:07;29.70;80.40
1447;DHT22;717;51.522;7.266;2022-08-19T14:31:34;29.70;80.00
1447;DHT22;717;51.522;7.266;2022-08-19T14:34:01;29.70;79.40
1447;DHT22;717;51.522;7.266;2022-08-19T14:36:29;29.70;79.30
1447;DHT22;717;51.522;7.266;2022-08-19T14:38:56;29.80;79.00
1447;DHT22;717;51.522;7.266;2022-08-19T14:41:23;29.80;78.90
1447;DHT22;717;51.522;7.266;2022-08-19T14:43:52;29.80;78.70
1447;DHT22;717;51.522;7.266;2022-08-19T14:46:23;29.80;78.70
1447;DHT22;717;51.522;7.266;2022-08-19T14:48:50;29.80;78.40
1447;DHT22;717;51.522;7.266;2022-08-19T14:51:18;29.90;78.70
1447;DHT22;717;51.522;7.266;2022-08-19T14:53:46;29.90;78.50
1447;DHT22;717;51.522;7.266;2022-08-19T14:56:16;29.90;78.00
1447;DHT22;717;51.522;7.266;2022-08-19T14:58:44;29.90;77.70
1447;DHT22;717;51.522;7.266;2022-08-19T15:01:11;29.90;77.80
1447;DHT22;717;51.522;7.266;2022-08-19T15:03:39;29.90;77.80
1447;DHT22;717;51.522;7.266;2022-08-19T15:06:07;29.90;77.90
1447;DHT22;717;51.522;7.266;2022-08-19T15:08:36;29.90;78.00
1447;DHT22;717;51.522;7.266;2022-08-19T15:11:09;29.90;77.70
1447;DHT22;717;51.522;7.266;2022-08-19T15:13:36;29.90;77.60
1447;DHT22;717;51.522;7.266;2022-08-19T15:16:04;29.90;77.50
1447;DHT22;717;51.522;7.266;2022-08-19T15:18:31;29.90;77.40
1447;DHT22;717;51.522;7.266;2022-08-19T15:21:00;29.90;77.80
1447;DHT22;717;51.522;7.266;2022-08-19T15:23:27;29.90;77.90
1447;DHT22;717;51.522;7.266;2022-08-19T15:25:54;29.90;77.50
1447;DHT22;717;51.522;7.266;2022-08-19T15:28:23;29.90;77.30
1447;DHT22;717;51.522;7.266;2022-08-19T15:30:51;29.80;77.20
1447;DHT22;717;51.522;7.266;2022-08-19T15:33:18;29.80;77.10
1447;DHT22;717;51.522;7.266;2022-08-19T15:35:47;29.80;77.10
1447;DHT22;717;51.522;7.266;2022-08-19T15:38:15;29.80;77.20
1447;DHT22;717;51.522;7.266;2022-08-19T15:40:44;29.90;77.50
1447;DHT22;717;51.522;7.266;2022-08-19T15:43:13;29.90;77.40
1447;DHT22;717;51.522;7.266;2022-08-19T15:45:41;29.90;77.30
1447;DHT22;717;51.522;7.266;2022-08-19T15:48:09;29.90;77.40
1447;DHT22;717;51.522;7.266;2022-08-19T15:50:36;29.90;77.60
1447;DHT22;717;51.522;7.266;2022-08-19T15:53:05;30.00;77.50
1447;DHT22;717;51.522;7.266;2022-08-19T15:55:35;30.00;77.60
1447;DHT22;717;51.522;7.266;2022-08-19T15:58:04;30.00;77.60
1447;DHT22;717;51.522;7.266;2022-08-19T16:00:50;30.00;77.70
1447;DHT22;717;51.522;7.266;2022-08-19T16:03:34;30.00;78.00
1447;DHT22;717;51.522;7.266;2022-08-19T16:06:19;29.90;78.00
1447;DHT22;717;51.522;7.266;2022-08-19T16:08:51;29.90;78.10
1447;DHT22;717;51.522;7.266;2022-08-19T16:11:20;29.90;78.50
1447;DHT22;717;51.522;7.266;2022-08-19T16:13:47;29.90;78.50
1447;DHT22;717;51.522;7.266;2022-08-19T16:16:17;29.90;78.30
1447;DHT22;717;51.522;7.266;2022-08-19T16:18:44;29.90;79.00
1447;DHT22;717;51.522;7.266;2022-08-19T16:21:13;29.90;78.00
1447;DHT22;717;51.522;7.266;2022-08-19T16:23:42;29.90;78.00
1447;DHT22;717;51.522;7.266;2022-08-19T16:26:09;29.90;77.80